createdAt,value
2022-07-25T00:02:01.395Z,2.70
2022-07-25T00:05:05.882Z,2.60
2022-07-25T00:08:08.539Z,2.97
2022-07-25T00:11:11.498Z,2.83
2022-07-25T00:14:13.969Z,2.60
2022-07-25T00:17:16.767Z,2.45
2022-07-25T00:20:19.339Z,2.47
2022-07-25T00:23:22.117Z,2.70
2022-07-25T00:26:24.630Z,2.50
2022-07-25T00:29:27.452Z,2.87
2022-07-25T00:32:29.878Z,2.97
2022-07-25T00:35:32.731Z,2.70
2022-07-25T00:38:35.607Z,2.70
2022-07-25T00:41:38.416Z,2.67
2022-07-25T00:44:40.955Z,2.50
2022-07-25T00:47:43.754Z,2.50
2022-07-25T00:50:46.437Z,2.70
2022-07-25T00:53:49.366Z,2.75
2022-07-25T00:56:52.443Z,2.35
2022-07-25T00:59:55.262Z,2.50
2022-07-25T01:02:58.414Z,2.33
2022-07-25T01:06:01.451Z,2.50
2022-07-25T01:09:04.338Z,2.40
2022-07-25T01:12:07.408Z,2.45
2022-07-25T01:15:13.881Z,2.30
2022-07-25T01:18:17.522Z,2.25
2022-07-25T01:21:20.089Z,2.30
2022-07-25T01:24:23.099Z,2.60
2022-07-25T01:27:25.663Z,2.58
2022-07-25T01:30:28.539Z,2.22
2022-07-25T01:33:31.105Z,2.62
2022-07-25T01:36:34.025Z,2.50
2022-07-25T01:39:36.540Z,2.45
2022-07-25T01:42:39.381Z,2.42
2022-07-25T01:45:41.947Z,2.45
2022-07-25T01:48:45.074Z,2.85
2022-07-25T01:51:47.616Z,2.65
2022-07-25T01:54:51.274Z,2.80
2022-07-25T01:57:54.012Z,2.40
2022-07-25T02:00:57.049Z,2.55
2022-07-25T02:03:59.909Z,2.90
2022-07-25T02:07:04.010Z,2.70
2022-07-25T02:10:09.406Z,2.53
2022-07-25T02:13:12.358Z,2.70
2022-07-25T02:16:15.228Z,2.78
2022-07-25T02:19:17.761Z,3.45
2022-07-25T02:22:20.626Z,3.60
2022-07-25T02:25:23.221Z,2.75
2022-07-25T02:28:26.019Z,2.75
2022-07-25T02:31:28.644Z,2.72
2022-07-25T02:34:31.393Z,2.53
2022-07-25T02:37:33.877Z,3.20
2022-07-25T02:40:36.955Z,2.47
2022-07-25T02:43:39.571Z,2.72
2022-07-25T02:46:42.325Z,2.65
2022-07-25T02:49:44.839Z,2.90
2022-07-25T02:52:47.613Z,2.90
2022-07-25T02:55:50.208Z,2.95
2022-07-25T02:58:53.238Z,2.60
2022-07-25T03:01:55.824Z,2.65
2022-07-25T03:04:58.596Z,3.00
2022-07-25T03:08:01.343Z,3.25
2022-07-25T03:11:04.227Z,2.58
2022-07-25T03:14:08.893Z,3.10
2022-07-25T03:17:12.007Z,3.00
2022-07-25T03:20:14.665Z,3.30
2022-07-25T03:23:17.535Z,3.25
2022-07-25T03:26:20.883Z,3.00
2022-07-25T03:29:23.968Z,3.17
2022-07-25T03:32:26.477Z,3.00
2022-07-25T03:35:29.553Z,3.28
2022-07-25T03:38:32.141Z,3.12
2022-07-25T03:41:34.921Z,3.03
2022-07-25T03:44:38.085Z,3.17
2022-07-25T03:47:40.905Z,3.28
2022-07-25T03:50:43.433Z,3.50
2022-07-25T03:54:05.345Z,3.53
2022-07-25T03:57:08.159Z,3.28
2022-07-25T04:00:12.516Z,3.30
2022-07-25T04:03:15.453Z,3.22
2022-07-25T04:06:18.718Z,3.37
2022-07-25T04:09:24.607Z,3.20
2022-07-25T04:12:27.355Z,3.05
2022-07-25T04:15:30.277Z,3.15
2022-07-25T04:18:34.291Z,3.00
2022-07-25T04:21:37.149Z,3.35
2022-07-25T04:24:39.910Z,3.33
2022-07-25T04:27:43.270Z,2.90
2022-07-25T04:30:45.955Z,3.33
2022-07-25T04:33:48.769Z,3.40
2022-07-25T04:36:51.266Z,3.60
2022-07-25T04:39:54.127Z,3.50
2022-07-25T04:42:56.590Z,3.30
2022-07-25T04:45:59.832Z,3.10
2022-07-25T04:49:02.539Z,3.33
2022-07-25T04:52:05.547Z,3.50
2022-07-25T04:55:08.850Z,3.33
2022-07-25T04:58:11.822Z,3.53
2022-07-25T05:01:14.546Z,2.95
2022-07-25T05:04:17.517Z,3.25
2022-07-25T05:07:20.062Z,3.30
2022-07-25T05:10:22.939Z,3.17
2022-07-25T05:13:25.549Z,2.85
2022-07-25T05:16:28.486Z,3.08
2022-07-25T05:19:31.138Z,2.87
2022-07-25T05:22:33.982Z,3.05
2022-07-25T05:25:37.374Z,2.90
2022-07-25T05:28:40.448Z,2.78
2022-07-25T05:31:43.159Z,3.08
2022-07-25T05:34:45.976Z,3.12
2022-07-25T05:37:48.469Z,3.17
2022-07-25T05:40:52.383Z,2.70
2022-07-25T05:43:55.025Z,2.80
2022-07-25T05:46:57.890Z,3.08
2022-07-25T05:50:00.530Z,2.67
2022-07-25T05:53:03.387Z,3.30
2022-07-25T05:56:06.241Z,2.62
2022-07-25T05:59:09.284Z,2.80
2022-07-25T06:02:11.921Z,2.80
2022-07-25T06:05:14.795Z,2.80
2022-07-25T06:08:17.295Z,2.97
2022-07-25T06:11:20.352Z,2.75
2022-07-25T06:14:23.859Z,3.20
2022-07-25T06:17:32.101Z,2.87
2022-07-25T06:20:35.152Z,2.60
2022-07-25T06:23:38.046Z,2.12
2022-07-25T06:26:40.762Z,2.45
2022-07-25T06:29:43.530Z,2.80
2022-07-25T06:32:46.088Z,2.67
2022-07-25T06:35:49.082Z,2.35
2022-07-25T06:38:51.676Z,2.30
2022-07-25T06:41:54.552Z,2.50
2022-07-25T06:44:57.173Z,2.60
2022-07-25T06:47:59.957Z,2.50
2022-07-25T06:51:02.853Z,2.30
2022-07-25T06:54:05.967Z,2.25
2022-07-25T06:57:09.021Z,2.10
2022-07-25T07:00:13.231Z,2.58
2022-07-25T07:03:15.769Z,2.37
2022-07-25T07:06:18.582Z,1.92
2022-07-25T07:09:21.119Z,2.20
2022-07-25T07:12:24.037Z,2.37
2022-07-25T07:15:26.708Z,2.30
2022-07-25T07:18:29.956Z,2.28
2022-07-25T07:21:32.510Z,2.28
2022-07-25T07:24:38.786Z,2.28
2022-07-25T07:27:47.101Z,2.35
2022-07-25T07:34:16.395Z,2.10
2022-07-25T07:37:19.592Z,2.20
2022-07-25T07:40:22.699Z,2.28
2022-07-25T07:43:29.969Z,1.90
2022-07-25T07:46:32.933Z,2.08
2022-07-25T07:49:36.949Z,1.70
2022-07-25T07:52:39.882Z,1.67
2022-07-25T07:55:45.852Z,1.95
2022-07-25T07:58:48.680Z,1.75
2022-07-25T08:01:51.677Z,1.67
2022-07-25T08:04:54.478Z,1.90
2022-07-25T08:07:59.850Z,1.70
2022-07-25T08:11:02.750Z,1.95
2022-07-25T08:14:07.344Z,1.90
2022-07-25T08:17:12.747Z,2.20
2022-07-25T08:20:39.501Z,1.87
2022-07-25T08:23:45.009Z,1.80
2022-07-25T08:26:47.511Z,1.85
2022-07-25T08:29:50.356Z,1.80
2022-07-25T08:32:59.945Z,1.77
2022-07-25T08:36:02.899Z,1.83
2022-07-25T08:39:05.610Z,1.75
2022-07-25T08:42:11.129Z,1.92
2022-07-25T08:45:19.513Z,1.75
2022-07-25T08:48:26.573Z,2.20
2022-07-25T08:51:29.380Z,1.80
2022-07-25T08:54:32.479Z,1.90
2022-07-25T08:57:41.333Z,1.70
2022-07-25T09:00:48.323Z,2.08
2022-07-25T09:03:51.212Z,1.83
2022-07-25T09:06:53.979Z,2.10
2022-07-25T09:09:59.692Z,2.12
2022-07-25T09:13:04.867Z,2.05
2022-07-25T09:16:07.818Z,1.70
2022-07-25T09:19:20.491Z,2.08
2022-07-25T09:22:23.700Z,2.42
2022-07-25T09:25:31.178Z,1.90
2022-07-25T09:28:44.052Z,1.98
2022-07-25T09:31:48.039Z,1.85
2022-07-25T09:34:51.051Z,1.95
2022-07-25T09:37:53.877Z,2.03
2022-07-25T09:41:01.621Z,2.10
2022-07-25T09:44:15.081Z,1.67
2022-07-25T09:47:17.661Z,1.80
2022-07-25T09:50:22.211Z,1.73
2022-07-25T09:53:25.044Z,1.92
2022-07-25T09:56:28.150Z,1.87
2022-07-25T09:59:30.980Z,2.60
2022-07-25T10:02:55.319Z,1.90
2022-07-25T10:06:10.839Z,1.85
2022-07-25T10:09:14.371Z,1.58
2022-07-25T10:12:23.800Z,1.90
2022-07-25T10:15:26.461Z,2.00
2022-07-25T10:18:30.703Z,1.80
2022-07-25T10:21:33.474Z,1.75
2022-07-25T10:24:39.018Z,1.83
2022-07-25T10:27:49.448Z,2.03
2022-07-25T10:30:58.563Z,1.73
2022-07-25T10:34:07.032Z,1.90
2022-07-25T10:37:14.141Z,2.08
2022-07-25T10:40:32.365Z,2.10
2022-07-25T10:43:39.874Z,1.85
2022-07-25T10:46:44.940Z,1.65
2022-07-25T10:50:15.088Z,2.17
2022-07-25T10:53:11.330Z,2.58
2022-07-25T10:56:19.906Z,1.95
2022-07-25T10:59:38.912Z,1.85
2022-07-25T11:02:42.983Z,2.03
2022-07-25T11:05:46.727Z,1.73
2022-07-25T11:08:49.792Z,1.92
2022-07-25T11:11:55.675Z,2.12
2022-07-25T11:15:07.720Z,2.08
2022-07-25T11:18:12.157Z,1.90
2022-07-25T11:21:15.017Z,1.77
2022-07-25T11:24:19.771Z,1.87
2022-07-25T11:27:33.712Z,1.70
2022-07-25T11:30:36.782Z,2.00
2022-07-25T11:33:42.788Z,1.87
2022-07-25T11:36:45.429Z,1.77
2022-07-25T11:39:48.985Z,1.90
2022-07-25T11:42:54.326Z,1.45
2022-07-25T11:46:03.539Z,1.87
2022-07-25T11:49:08.673Z,2.08
2022-07-25T11:52:33.850Z,1.92
2022-07-25T11:55:40.856Z,1.73
2022-07-25T11:58:49.844Z,1.87
2022-07-25T12:01:52.928Z,1.80
2022-07-25T12:05:02.018Z,1.70
2022-07-25T12:08:13.031Z,1.60
2022-07-25T12:11:22.577Z,1.80
2022-07-25T12:14:25.229Z,1.30
2022-07-25T12:17:27.980Z,1.42
2022-07-25T12:20:33.683Z,1.37
2022-07-25T12:23:36.717Z,1.73
2022-07-25T12:26:39.305Z,1.70
2022-07-25T12:29:42.463Z,1.70
2022-07-25T12:32:45.721Z,1.35
2022-07-25T12:35:48.836Z,1.67
2022-07-25T12:38:51.433Z,1.40
2022-07-25T12:41:54.501Z,1.45
2022-07-25T12:44:57.188Z,1.48
2022-07-25T12:48:00.113Z,1.77
2022-07-25T12:51:02.780Z,1.95
2022-07-25T12:54:06.038Z,1.62
2022-07-25T12:57:10.278Z,1.50
2022-07-25T13:00:18.582Z,1.52
2022-07-25T13:03:21.380Z,1.35
2022-07-25T13:06:24.303Z,1.58
2022-07-25T13:09:27.984Z,1.70
2022-07-25T13:12:30.943Z,1.50
2022-07-25T13:15:34.041Z,1.67
2022-07-25T13:18:37.418Z,1.70
2022-07-25T13:21:40.746Z,1.50
2022-07-25T13:24:43.900Z,1.65
2022-07-25T13:27:48.523Z,1.60
2022-07-25T13:30:51.558Z,1.50
2022-07-25T13:33:54.495Z,1.50
2022-07-25T13:36:57.394Z,1.55
2022-07-25T13:40:00.110Z,1.70
2022-07-25T13:43:02.853Z,1.60
2022-07-25T13:46:06.002Z,1.65
2022-07-25T13:49:09.332Z,1.40
2022-07-25T13:52:12.379Z,1.45
2022-07-25T13:55:15.140Z,1.60
2022-07-25T13:58:17.766Z,1.65
2022-07-25T14:01:20.761Z,1.52
2022-07-25T14:04:23.853Z,1.67
2022-07-25T14:07:26.488Z,1.40
2022-07-25T14:10:29.449Z,1.77
2022-07-25T14:13:33.038Z,1.80
2022-07-25T14:16:35.934Z,1.87
2022-07-25T14:19:38.552Z,1.42
2022-07-25T14:22:42.253Z,2.03
2022-07-25T14:25:44.964Z,1.62
2022-07-25T14:28:48.023Z,1.65
2022-07-25T14:31:50.589Z,1.77
2022-07-25T14:34:53.544Z,1.35
2022-07-25T14:37:56.292Z,1.73
2022-07-25T14:40:59.833Z,1.75
2022-07-25T14:44:02.333Z,1.50
2022-07-25T14:47:10.474Z,1.50
2022-07-25T14:50:15.549Z,1.85
2022-07-25T14:53:18.559Z,1.70
2022-07-25T14:56:21.320Z,1.65
2022-07-25T14:59:25.014Z,1.87
2022-07-25T15:02:28.331Z,1.70
2022-07-25T15:05:31.140Z,1.80
2022-07-25T15:08:33.802Z,1.67
2022-07-25T15:11:37.344Z,1.50
2022-07-25T15:14:40.382Z,1.60
2022-07-25T15:17:46.241Z,1.60
2022-07-25T15:20:48.887Z,1.73
2022-07-25T15:23:54.086Z,1.60
2022-07-25T15:26:58.137Z,1.77
2022-07-25T15:30:00.976Z,2.00
2022-07-25T15:33:03.874Z,1.50
2022-07-25T15:36:07.238Z,2.10
2022-07-25T15:39:10.429Z,1.90
2022-07-25T15:42:13.801Z,1.70
2022-07-25T15:45:32.581Z,1.80
2022-07-25T15:48:36.443Z,1.98
2022-07-25T15:51:39.264Z,1.73
2022-07-25T15:54:42.182Z,1.70
2022-07-25T15:57:44.763Z,1.48
2022-07-25T16:00:47.612Z,1.90
2022-07-25T16:03:50.680Z,2.20
2022-07-25T16:06:53.274Z,1.98
2022-07-25T16:09:56.728Z,1.98
2022-07-25T16:12:59.947Z,1.52
2022-07-25T16:16:02.879Z,1.92
2022-07-25T16:19:05.832Z,1.65
2022-07-25T16:22:08.973Z,1.83
2022-07-25T16:25:11.653Z,2.00
2022-07-25T16:28:14.546Z,1.87
2022-07-25T16:31:17.138Z,1.80
2022-07-25T16:34:19.986Z,1.65
2022-07-25T16:37:22.638Z,2.22
2022-07-25T16:40:30.235Z,1.70
2022-07-25T16:43:33.416Z,1.85
2022-07-25T16:46:37.067Z,1.70
2022-07-25T16:49:39.683Z,1.85
2022-07-25T16:52:42.585Z,2.00
2022-07-25T16:55:45.162Z,1.73
2022-07-25T16:58:48.062Z,2.00
2022-07-25T17:01:50.727Z,2.10
2022-07-25T17:04:54.030Z,1.87
2022-07-25T17:07:59.686Z,1.87
2022-07-25T17:11:03.436Z,2.10
2022-07-25T17:14:06.018Z,1.98
2022-07-25T17:17:08.992Z,3.65
2022-07-25T17:20:12.365Z,2.15
2022-07-25T17:23:15.613Z,2.47
2022-07-25T17:26:18.217Z,2.50
2022-07-25T17:29:21.179Z,2.90
2022-07-25T17:32:27.796Z,2.50
2022-07-25T17:35:33.317Z,2.12
2022-07-25T17:38:37.249Z,2.30
2022-07-25T17:41:40.158Z,2.20
2022-07-25T17:44:42.690Z,2.58
2022-07-25T17:47:45.574Z,2.17
2022-07-25T17:50:48.768Z,2.60
2022-07-25T17:53:51.638Z,2.03
2022-07-25T17:56:54.309Z,2.55
2022-07-25T17:59:57.171Z,2.10
2022-07-25T18:03:00.037Z,2.20
2022-07-25T18:06:04.274Z,2.40
2022-07-25T18:09:08.138Z,2.67
2022-07-25T18:12:11.089Z,1.87
2022-07-25T18:15:14.982Z,2.20
2022-07-25T18:18:20.612Z,1.98
2022-07-25T18:21:24.477Z,2.00
2022-07-25T18:24:29.513Z,2.20
2022-07-25T18:27:32.301Z,1.87
2022-07-25T18:30:35.153Z,2.30
2022-07-25T18:33:37.625Z,2.22
2022-07-25T18:36:41.695Z,1.85
2022-07-25T18:39:44.277Z,1.83
2022-07-25T18:42:47.771Z,1.85
2022-07-25T18:45:50.862Z,2.30
2022-07-25T18:48:53.968Z,2.20
2022-07-25T18:51:56.743Z,2.40
2022-07-25T18:54:59.520Z,2.17
2022-07-25T18:58:02.401Z,2.50
2022-07-25T19:01:05.377Z,2.40
2022-07-25T19:04:08.213Z,2.40
2022-07-25T19:07:11.316Z,2.28
2022-07-25T19:10:14.154Z,2.40
2022-07-25T19:13:39.174Z,2.30
2022-07-25T19:16:40.773Z,2.37
2022-07-25T19:19:44.071Z,2.50
2022-07-25T19:22:46.630Z,2.60
2022-07-25T19:25:49.419Z,2.60
2022-07-25T19:28:52.224Z,2.95
2022-07-25T19:31:55.177Z,2.58
2022-07-25T19:34:57.761Z,2.35
2022-07-25T19:38:00.521Z,2.60
2022-07-25T19:41:03.507Z,2.45
2022-07-25T19:44:07.068Z,2.28
2022-07-25T19:47:11.943Z,2.50
2022-07-25T19:50:14.950Z,2.55
2022-07-25T19:53:17.411Z,2.80
2022-07-25T19:56:20.698Z,2.70
2022-07-25T19:59:23.673Z,2.95
2022-07-25T20:02:26.663Z,2.50
2022-07-25T20:05:29.606Z,2.72
2022-07-25T20:08:32.411Z,2.58
2022-07-25T20:11:37.411Z,2.20
2022-07-25T20:14:39.945Z,2.67
2022-07-25T20:17:42.963Z,2.78
2022-07-25T20:20:45.950Z,2.72
2022-07-25T20:23:49.145Z,2.72
2022-07-25T20:26:51.764Z,2.80
2022-07-25T20:29:54.746Z,2.75
2022-07-25T20:32:57.322Z,2.40
2022-07-25T20:36:00.832Z,2.65
2022-07-25T20:39:04.236Z,2.78
2022-07-25T20:42:08.248Z,3.03
2022-07-25T20:45:11.074Z,2.75
2022-07-25T20:48:14.175Z,2.83
2022-07-25T20:51:16.803Z,2.75
2022-07-25T20:54:19.694Z,3.35
2022-07-25T20:57:22.612Z,3.35
2022-07-25T21:00:27.858Z,3.20
2022-07-25T21:03:31.014Z,3.20
2022-07-25T21:06:34.064Z,3.35
2022-07-25T21:09:37.628Z,2.90
2022-07-25T21:12:41.110Z,3.40
2022-07-25T21:15:43.794Z,3.47
2022-07-25T21:18:46.801Z,3.17
2022-07-25T21:21:49.452Z,3.10
2022-07-25T21:24:53.671Z,3.50
2022-07-25T21:27:56.273Z,3.20
2022-07-25T21:30:59.109Z,3.87
2022-07-25T21:34:02.180Z,4.03
2022-07-25T21:37:05.030Z,3.85
2022-07-25T21:40:08.591Z,4.00
2022-07-25T21:43:13.048Z,4.03
2022-07-25T21:46:15.770Z,4.05
2022-07-25T21:49:41.116Z,3.85
2022-07-25T21:52:45.020Z,4.32
2022-07-25T21:55:47.784Z,3.85
2022-07-25T21:58:52.372Z,4.10
2022-07-25T22:01:55.174Z,4.00
2022-07-25T22:04:57.988Z,4.25
2022-07-25T22:08:00.487Z,4.07
2022-07-25T22:11:15.606Z,3.83
2022-07-25T22:14:23.674Z,3.33
2022-07-25T22:17:26.558Z,3.58
2022-07-25T22:20:49.121Z,3.70
2022-07-25T22:23:51.984Z,3.60
2022-07-25T22:26:54.573Z,3.90
2022-07-25T22:29:57.410Z,3.40
2022-07-25T22:32:59.915Z,3.33
2022-07-25T22:36:02.799Z,3.35
2022-07-25T22:39:05.858Z,3.40
2022-07-25T22:42:08.992Z,3.05
2022-07-25T22:45:11.700Z,3.25
2022-07-25T22:48:14.610Z,3.58
2022-07-25T22:51:17.245Z,3.25
2022-07-25T22:54:19.998Z,2.90
2022-07-25T22:57:22.580Z,3.40
2022-07-25T23:00:25.591Z,3.33
2022-07-25T23:03:30.617Z,3.67
2022-07-25T23:06:35.779Z,3.87
2022-07-25T23:09:38.294Z,3.53
2022-07-25T23:12:41.245Z,3.87
2022-07-25T23:15:49.943Z,3.60
2022-07-25T23:18:55.648Z,3.55
2022-07-25T23:21:58.043Z,2.95
2022-07-25T23:25:00.963Z,3.15
2022-07-25T23:28:03.634Z,3.00
2022-07-25T23:31:06.826Z,3.37
2022-07-25T23:34:09.493Z,3.50
2022-07-25T23:37:12.572Z,3.40
2022-07-25T23:40:15.357Z,3.30
2022-07-25T23:43:18.943Z,3.35
2022-07-25T23:46:38.021Z,3.20
2022-07-25T23:49:41.231Z,3.15
2022-07-25T23:52:43.827Z,3.30
2022-07-25T23:55:46.653Z,3.35
2022-07-25T23:58:50.235Z,3.15
